Time;durP1;ratioP1;P1;durP2;ratioP2;P2;SDS_P1;SDS_P2;PMS_P1;PMS_P2;Temp;Humidity;BMP_temperature;BMP_pressure;BME280_temperature;BME280_humidity;BME280_pressure;Samples;Min_cycle;Max_cycle;Signal;HPM_P1;HPM_P2
2023/01/02 00:01:06;;;;;;;0.70;0.60;;;;;;;8.94;100.00;100236.94;5015307;28;20052;-72
2023/01/02 00:03:31;;;;;;;2.30;0.95;;;;;;;8.94;100.00;100239.72;5026079;28;20497;-71
2023/01/02 00:05:57;;;;;;;1.50;1.00;;;;;;;8.94;100.00;100234.16;5015601;28;20087;-72
2023/01/02 00:08:22;;;;;;;1.20;1.00;;;;;;;8.93;100.00;100233.34;5015829;28;20025;-71
2023/01/02 00:10:48;;;;;;;1.58;0.88;;;;;;;8.91;100.00;100223.69;4998580;28;20041;-72
2023/01/02 00:13:13;;;;;;;2.63;1.10;;;;;;;8.88;100.00;100227.84;5015972;28;20026;-72
2023/01/02 00:15:39;;;;;;;1.50;1.02;;;;;;;8.89;100.00;100231.47;5015905;28;20061;-72
2023/01/02 00:18:04;;;;;;;1.60;1.30;;;;;;;8.90;100.00;100238.66;5014269;28;20033;-71
2023/01/02 00:20:30;;;;;;;1.58;1.30;;;;;;;8.90;100.00;100238.66;4997861;28;20036;-72
2023/01/02 00:22:55;;;;;;;2.03;1.20;;;;;;;8.90;100.00;100238.66;5014850;28;20033;-72
2023/01/02 00:25:21;;;;;;;1.50;1.23;;;;;;;8.88;100.00;100238.94;5014490;28;20033;-71
2023/01/02 00:27:46;;;;;;;2.35;0.80;;;;;;;8.88;100.00;100240.88;5015806;28;20038;-71
2023/01/02 00:30:12;;;;;;;1.98;1.10;;;;;;;8.86;100.00;100249.50;5015525;28;20022;-72
2023/01/02 00:32:38;;;;;;;1.58;1.30;;;;;;;8.86;100.00;100248.63;5015541;28;20038;-71
2023/01/02 00:35:03;;;;;;;1.75;1.40;;;;;;;8.84;100.00;100246.19;5014393;28;20034;-71
2023/01/02 00:37:29;;;;;;;1.83;1.23;;;;;;;8.84;100.00;100246.19;5014263;28;20180;-71
2023/01/02 00:39:54;;;;;;;3.55;1.38;;;;;;;8.82;100.00;100247.56;5015603;28;20029;-72
2023/01/02 00:42:20;;;;;;;1.90;1.30;;;;;;;8.83;100.00;100249.22;5015701;28;20029;-72
2023/01/02 00:44:45;;;;;;;3.05;1.20;;;;;;;8.81;100.00;100246.75;5018010;28;20033;-71
2023/01/02 00:47:11;;;;;;;1.70;1.40;;;;;;;8.81;100.00;100245.94;5035432;28;20026;-72
2023/01/02 00:49:37;;;;;;;2.20;1.30;;;;;;;8.80;100.00;100238.72;5034035;28;20033;-72
2023/01/02 00:52:02;;;;;;;1.92;1.40;;;;;;;8.81;100.00;100243.16;5034969;28;20030;-71
2023/01/02 00:54:28;;;;;;;2.83;1.50;;;;;;;8.79;100.00;100237.06;5026466;28;20068;-71
2023/01/02 00:56:53;;;;;;;2.08;1.45;;;;;;;8.78;100.00;100235.44;5015225;28;20030;-72
2023/01/02 00:59:19;;;;;;;1.88;1.42;;;;;;;8.79;100.00;100239.84;5015439;28;20029;-71
2023/01/02 01:01:44;;;;;;;4.07;1.58;;;;;;;8.77;100.00;100240.13;5014304;28;20478;-71
2023/01/02 01:04:10;;;;;;;1.60;1.42;;;;;;;8.78;100.00;100243.75;5017749;28;20041;-71
2023/01/02 01:06:35;;;;;;;1.13;1.02;;;;;;;8.76;100.00;100251.50;5017928;28;20038;-72
2023/01/02 01:09:01;;;;;;;2.05;1.60;;;;;;;8.73;100.00;100248.19;5017783;28;20066;-72
2023/01/02 01:11:26;;;;;;;2.95;1.60;;;;;;;8.75;100.00;100247.06;5019080;28;20034;-72
2023/01/02 01:13:52;;;;;;;3.92;1.38;;;;;;;8.73;100.00;100250.13;5018975;28;20041;-72
2023/01/02 01:16:17;;;;;;;1.92;1.27;;;;;;;8.70;100.00;100240.47;5019125;28;20100;-72
2023/01/02 01:18:43;;;;;;;1.20;1.10;;;;;;;8.67;100.00;100241.03;5017688;28;20033;-71
2023/01/02 01:21:10;;;;;;;2.38;1.45;;;;;;;8.66;100.00;100256.00;5017239;28;20033;-72
2023/01/02 01:23:36;;;;;;;1.67;1.45;;;;;;;8.61;100.00;100264.34;5017543;28;20037;-72
2023/01/02 01:26:05;;;;;;;1.40;1.27;;;;;;;8.62;100.00;100268.75;5017909;28;20022;-71
2023/01/02 01:28:31;;;;;;;2.17;1.20;;;;;;;8.62;100.00;100277.06;5019057;28;20085;-72
2023/01/02 01:31:02;;;;;;;3.15;1.65;;;;;;;8.60;100.00;100284.81;5017717;28;20076;-72
2023/01/02 01:33:29;;;;;;;2.78;1.30;;;;;;;8.59;100.00;100277.63;5018557;28;20095;-71
2023/01/02 01:35:54;;;;;;;1.73;1.20;;;;;;;8.59;100.00;100277.63;5016955;28;20037;-72
2023/01/02 01:38:20;;;;;;;1.88;1.17;;;;;;;8.56;100.00;100280.16;5017413;28;20548;-71
2023/01/02 01:40:45;;;;;;;1.23;0.95;;;;;;;8.56;100.00;100274.63;5017606;28;20022;-71
2023/01/02 01:43:14;;;;;;;2.60;1.20;;;;;;;8.55;100.00;100284.03;5017242;28;20037;-72
2023/01/02 01:45:41;;;;;;;1.85;1.20;;;;;;;8.55;100.00;100290.38;5028040;28;20033;-71
2023/01/02 01:48:06;;;;;;;3.22;1.27;;;;;;;8.56;100.00;100294.81;5004421;28;20516;-72
2023/01/02 01:50:32;;;;;;;2.80;1.30;;;;;;;8.55;100.00;100292.31;5020309;28;20033;-71
2023/01/02 01:53:13;;;;;;;2.30;1.23;;;;;;;8.56;100.00;100291.22;5038219;28;20025;-71
2023/01/02 01:55:50;;;;;;;1.35;1.08;;;;;;;8.54;100.00;100296.22;5030360;28;20032;-71
2023/01/02 01:58:21;;;;;;;1.58;1.23;;;;;;;8.53;100.00;100289.84;5016953;28;20029;-71
2023/01/02 02:00:46;;;;;;;1.45;1.15;;;;;;;8.53;100.00;100289.84;5000944;28;20045;-72
2023/01/02 02:03:17;;;;;;;2.47;1.30;;;;;;;8.48;100.00;100278.81;5007434;28;20030;-72
2023/01/02 02:05:43;;;;;;;1.60;1.20;;;;;;;8.49;100.00;100291.53;5000524;28;20022;-72
2023/01/02 02:08:17;;;;;;;1.77;1.10;;;;;;;8.49;100.00;100294.28;5000456;28;20421;-71
2023/01/02 02:10:43;;;;;;;2.05;1.10;;;;;;;8.47;100.00;100297.38;5017752;28;20037;-71
2023/01/02 02:13:08;;;;;;;1.63;1.20;;;;;;;8.43;100.00;100298.22;5016777;28;20041;-71
2023/01/02 02:16:15;;;;;;;1.13;0.90;;;;;;;8.41;100.00;100286.59;5016731;28;20026;-72
2023/01/02 02:19:13;;;;;;;1.77;1.33;;;;;;;8.40;100.00;100299.59;5016705;28;20072;-71
2023/01/02 02:21:59;;;;;;;1.48;1.17;;;;;;;8.39;100.00;100300.72;5016547;28;20033;-72
2023/01/02 02:24:56;;;;;;;2.05;1.13;;;;;;;8.37;100.00;100302.09;5016379;28;20107;-72
2023/01/02 02:27:58;;;;;;;1.92;1.08;;;;;;;8.36;100.00;100308.72;5016660;28;20058;-72
2023/01/02 02:30:26;;;;;;;3.40;1.17;;;;;;;8.37;100.00;100321.47;5017808;28;20034;-72
2023/01/02 02:33:02;;;;;;;2.72;1.20;;;;;;;8.38;100.00;100312.03;5000280;28;20388;-71
2023/01/02 02:35:48;;;;;;;1.52;1.00;;;;;;;8.35;100.00;100321.72;5018788;28;20040;-72
2023/01/02 02:38:47;;;;;;;1.52;0.90;;;;;;;8.37;100.00;100321.47;5035794;28;20050;-72
2023/01/02 02:41:32;;;;;;;2.17;1.05;;;;;;;8.35;100.00;100321.72;5037272;28;20029;-72
2023/01/02 02:44:00;;;;;;;1.92;1.23;;;;;;;8.34;100.00;100327.56;5025714;28;20022;-71
2023/01/02 02:46:58;;;;;;;1.60;1.15;;;;;;;8.35;100.00;100324.50;5045278;28;20093;-72
2023/01/02 02:49:39;;;;;;;3.58;1.13;;;;;;;8.36;100.00;100337.25;5014171;28;20525;-72
2023/01/02 02:52:06;;;;;;;2.75;0.93;;;;;;;8.34;100.00;100336.69;5000951;28;20117;-72
2023/01/02 02:54:36;;;;;;;3.28;1.35;;;;;;;8.29;100.00;100334.75;5019263;28;20032;-72
2023/01/02 02:57:01;;;;;;;1.85;1.10;;;;;;;8.31;100.00;100339.19;5042358;28;20402;-72
2023/01/02 02:59:27;;;;;;;2.10;1.02;;;;;;;8.28;100.00;100349.72;5017066;28;20077;-72
2023/01/02 03:01:52;;;;;;;2.53;1.40;;;;;;;8.26;100.00;100346.41;4999652;28;20034;-72
2023/01/02 03:04:19;;;;;;;1.50;1.10;;;;;;;8.28;100.00;100365.50;5015819;28;20045;-72
2023/01/02 03:07:03;;;;;;;2.83;1.40;;;;;;;8.24;100.00;100372.69;5016429;28;20129;-71
2023/01/02 03:09:46;;;;;;;4.60;1.40;;;;;;;8.24;100.00;100367.97;5017062;28;20072;-71
2023/01/02 03:12:45;;;;;;;3.25;1.25;;;;;;;8.25;100.00;100377.13;5000403;28;20062;-72
2023/01/02 03:15:31;;;;;;;2.35;1.10;;;;;;;8.25;100.00;100377.94;5000167;28;20061;-71
2023/01/02 03:18:22;;;;;;;1.58;0.88;;;;;;;8.26;100.00;100376.00;5001715;28;20056;-72
2023/01/02 03:20:59;;;;;;;1.95;0.98;;;;;;;8.26;100.00;100368.53;5015284;28;20064;-71
2023/01/02 03:23:25;;;;;;;4.15;3.72;;;;;;;8.28;100.00;100365.50;4983292;28;20034;-71
2023/01/02 03:25:51;;;;;;;4.15;2.70;;;;;;;8.28;100.00;100362.72;4998485;28;20513;-72
2023/01/02 03:28:17;;;;;;;5.05;2.50;;;;;;;8.31;100.00;100367.69;5015372;28;20041;-71
2023/01/02 03:30:43;;;;;;;5.00;2.47;;;;;;;8.30;100.00;100374.31;5015477;28;20030;-71
2023/01/02 03:33:14;;;;;;;2.80;2.08;;;;;;;8.29;100.00;100375.44;5015248;28;20446;-72
2023/01/02 03:35:42;;;;;;;2.55;1.92;;;;;;;8.29;100.00;100392.88;4998723;28;20022;-71
2023/01/02 03:38:13;;;;;;;4.60;2.03;;;;;;;8.31;100.00;100386.25;4998923;28;20127;-71
2023/01/02 03:40:44;;;;;;;2.78;1.58;;;;;;;8.28;100.00;100405.06;4999392;28;20030;-71
2023/01/02 03:43:20;;;;;;;3.15;1.80;;;;;;;8.31;100.00;100403.66;4982693;28;20026;-71
2023/01/02 03:45:50;;;;;;;2.53;1.50;;;;;;;8.32;100.00;100401.72;5027185;28;20105;-71
2023/01/02 03:48:25;;;;;;;5.13;2.22;;;;;;;8.31;100.00;100403.66;5027926;28;20146;-71
2023/01/02 03:50:55;;;;;;;1.88;1.65;;;;;;;8.28;100.00;100410.59;5015983;28;20120;-72
2023/01/02 03:53:20;;;;;;;6.38;1.95;;;;;;;8.27;100.00;100414.47;4998750;28;20060;-72
2023/01/02 03:56:15;;;;;;;4.07;1.90;;;;;;;8.28;100.00;100416.13;4998518;28;20387;-71
2023/01/02 03:58:57;;;;;;;2.72;2.15;;;;;;;8.29;100.00;100411.41;5014187;28;20076;-72
2023/01/02 04:01:25;;;;;;;4.28;1.92;;;;;;;8.28;100.00;100407.81;5016209;28;20041;-71
2023/01/02 04:04:01;;;;;;;2.35;1.67;;;;;;;8.25;100.00;100405.63;4998390;28;20030;-71
2023/01/02 04:06:32;;;;;;;3.30;1.95;;;;;;;8.24;100.00;100395.66;5014465;28;20462;-72
2023/01/02 04:09:01;;;;;;;2.72;2.10;;;;;;;8.23;100.00;100405.06;4998721;28;20026;-72
2023/01/02 04:11:26;;;;;;;2.75;1.95;;;;;;;8.25;100.00;100416.69;5016042;28;20448;-71
2023/01/02 04:13:59;;;;;;;3.28;1.60;;;;;;;8.21;100.00;100418.34;5016006;28;20030;-71
2023/01/02 04:16:30;;;;;;;2.67;1.50;;;;;;;8.22;100.00;100414.47;5014518;28;20487;-71
2023/01/02 04:19:14;;;;;;;2.75;1.75;;;;;;;8.24;100.00;100419.72;4998252;28;20087;-72
2023/01/02 04:21:39;;;;;;;3.42;1.60;;;;;;;8.21;100.00;100420.28;5015673;28;20053;-72
2023/01/02 04:24:09;;;;;;;2.00;1.30;;;;;;;8.16;100.00;100425.81;4982176;28;20029;-71
2023/01/02 04:26:38;;;;;;;2.40;1.52;;;;;;;8.12;100.00;100417.25;5014359;28;20542;-72
2023/01/02 04:29:03;;;;;;;3.33;1.65;;;;;;;8.09;100.00;100428.88;5014621;28;20487;-72
2023/01/02 04:31:38;;;;;;;1.70;1.45;;;;;;;8.08;100.00;100427.25;4965994;28;20032;-71
2023/01/02 04:34:04;;;;;;;3.05;1.50;;;;;;;8.10;100.00;100438.00;4993958;28;20037;-72
2023/01/02 04:36:29;;;;;;;2.67;1.80;;;;;;;8.05;100.00;100430.53;5033729;28;20037;-71
2023/01/02 04:38:55;;;;;;;3.38;1.92;;;;;;;8.01;100.00;100433.03;5037417;28;20088;-71
2023/01/02 04:41:25;;;;;;;2.45;1.90;;;;;;;8.03;100.00;100441.91;5021790;28;20700;-72
2023/01/02 04:43:54;;;;;;;2.10;1.60;;;;;;;7.98;100.00;100444.66;5014503;28;20033;-71
2023/01/02 04:46:20;;;;;;;2.83;1.67;;;;;;;7.97;100.00;100448.56;5051456;28;20165;-72
2023/01/02 04:48:45;;;;;;;3.40;1.98;;;;;;;8.00;100.00;100447.16;5019443;28;20037;-71
2023/01/02 04:51:11;;;;;;;3.17;1.80;;;;;;;7.94;100.00;100438.06;5018880;28;20030;-72
2023/01/02 04:53:36;;;;;;;3.90;2.05;;;;;;;7.95;100.00;100445.22;5019589;28;20045;-72
2023/01/02 04:56:02;;;;;;;4.50;2.00;;;;;;;7.93;100.00;100461.25;5014843;28;20035;-71
2023/01/02 04:58:27;;;;;;;3.35;1.80;;;;;;;7.91;100.00;100477.31;5017683;28;20386;-72
2023/01/02 05:00:53;;;;;;;2.78;1.70;;;;;;;7.87;100.00;100486.44;5019335;28;20033;-72
2023/01/02 05:03:18;;;;;;;3.25;1.63;;;;;;;7.86;100.00;100490.31;5017943;28;20033;-72
2023/01/02 05:05:44;;;;;;;3.30;1.77;;;;;;;7.83;100.00;100487.00;5017661;28;20037;-72
2023/01/02 05:08:09;;;;;;;4.65;1.67;;;;;;;7.82;100.00;100495.56;5019238;28;20034;-71
2023/01/02 05:10:35;;;;;;;2.95;1.52;;;;;;;7.84;100.00;100493.34;5019107;28;20032;-71
2023/01/02 05:13:00;;;;;;;2.97;1.63;;;;;;;7.80;100.00;100478.41;5019171;28;20036;-71
2023/01/02 05:15:26;;;;;;;2.15;1.60;;;;;;;7.77;100.00;100457.69;5017940;28;20486;-71
2023/01/02 05:17:52;;;;;;;3.47;1.92;;;;;;;7.77;100.00;100466.00;5019119;28;20037;-71
2023/01/02 05:20:17;;;;;;;3.30;1.50;;;;;;;7.78;100.00;100470.41;5018662;28;20037;-71
2023/01/02 05:25:30;;;;;;;4.00;1.60;;;;;;;7.80;100.00;100482.03;5009457;28;20033;-72
2023/01/02 05:27:55;;;;;;;3.00;1.70;;;;;;;7.76;100.00;100491.13;5018728;28;20026;-71
2023/01/02 05:30:21;;;;;;;4.57;1.50;;;;;;;7.77;100.00;100496.41;5017861;28;20033;-71
2023/01/02 05:32:47;;;;;;;2.58;1.48;;;;;;;7.72;100.00;100496.38;5017661;28;20030;-71
2023/01/02 05:35:12;;;;;;;5.22;1.90;;;;;;;7.73;100.00;100492.50;5018654;28;20044;-72
2023/01/02 05:37:38;;;;;;;2.85;1.73;;;;;;;7.72;100.00;100479.81;5017167;28;20399;-71
2023/01/02 05:40:04;;;;;;;3.75;1.75;;;;;;;7.73;100.00;100458.50;5018391;28;20658;-72
2023/01/02 05:42:29;;;;;;;3.83;1.55;;;;;;;7.68;100.00;100453.81;5018895;28;20025;-72
2023/01/02 05:44:54;;;;;;;5.18;1.60;;;;;;;7.67;100.00;100481.75;5022487;28;20032;-71
2023/01/02 05:47:20;;;;;;;2.92;1.92;;;;;;;7.65;100.00;100495.00;5053786;28;20029;-71
2023/01/02 05:49:46;;;;;;;4.43;1.60;;;;;;;7.61;100.00;100505.78;5037533;28;20505;-72
2023/01/02 05:52:11;;;;;;;3.00;1.80;;;;;;;7.64;100.00;100510.75;5036579;28;20056;-71
2023/01/02 05:54:36;;;;;;;3.80;1.70;;;;;;;7.60;100.00;100493.03;5036797;28;20029;-72
2023/01/02 05:57:02;;;;;;;2.63;1.95;;;;;;;7.58;100.00;100496.09;5018366;28;20450;-72
2023/01/02 05:59:27;;;;;;;2.33;1.60;;;;;;;7.60;100.00;100495.81;5017314;28;20033;-71
2023/01/02 06:01:53;;;;;;;3.10;1.80;;;;;;;7.55;100.00;100490.28;5018355;28;20026;-72
2023/01/02 06:04:18;;;;;;;2.63;1.65;;;;;;;7.54;100.00;100516.25;5017792;28;20037;-72
2023/01/02 06:06:44;;;;;;;3.67;1.88;;;;;;;7.57;100.00;100532.28;5017765;28;20018;-72
2023/01/02 06:09:13;;;;;;;2.88;1.75;;;;;;;7.54;100.00;100543.91;5017222;28;20029;-72
2023/01/02 06:11:39;;;;;;;3.25;2.08;;;;;;;7.53;100.00;100556.06;5000691;28;20083;-72
2023/01/02 06:14:04;;;;;;;3.85;1.75;;;;;;;7.49;100.00;100557.69;5017914;28;20029;-72
2023/01/02 06:16:30;;;;;;;4.20;1.83;;;;;;;7.45;100.00;100564.88;5033347;28;20038;-72
2023/01/02 06:18:55;;;;;;;2.05;1.77;;;;;;;7.44;100.00;100553.00;5016543;28;20068;-72
2023/01/02 06:21:21;;;;;;;4.38;2.13;;;;;;;7.41;100.00;100538.88;5017597;28;20091;-72
2023/01/02 06:23:47;;;;;;;4.32;2.20;;;;;;;7.43;100.00;100542.22;5017805;28;20030;-72
2023/01/02 06:26:17;;;;;;;2.97;1.70;;;;;;;7.38;100.00;100552.16;4984050;28;20033;-72
2023/01/02 06:28:42;;;;;;;2.65;1.90;;;;;;;7.39;100.00;100559.34;5016344;28;20036;-72
2023/01/02 06:31:11;;;;;;;3.45;1.80;;;;;;;7.37;100.00;100564.28;5017676;28;20085;-72
2023/01/02 06:33:37;;;;;;;3.00;2.00;;;;;;;7.37;100.00;100582.81;5047073;28;20042;-72
2023/01/02 06:36:07;;;;;;;4.93;1.80;;;;;;;7.36;100.00;100601.31;5017660;28;20038;-72
2023/01/02 06:38:32;;;;;;;2.53;1.83;;;;;;;7.30;100.00;100624.53;5014014;28;20082;-72
2023/01/02 06:40:59;;;;;;;5.90;2.00;;;;;;;7.30;100.00;100610.72;5017233;28;20091;-72
2023/01/02 06:43:25;;;;;;;1.60;1.50;;;;;;;7.32;100.00;100591.06;5017355;28;20033;-72
2023/01/02 06:45:52;;;;;;;3.05;1.92;;;;;;;7.30;100.00;100573.94;5060597;28;20101;-72
2023/01/02 06:48:18;;;;;;;2.50;1.92;;;;;;;7.31;100.00;100617.88;5036134;28;20090;-72
2023/01/02 06:50:44;;;;;;;3.08;1.98;;;;;;;7.27;100.00;100600.19;5035494;28;20072;-72
2023/01/02 06:53:10;;;;;;;4.78;1.98;;;;;;;7.26;100.00;100608.75;5018128;28;20044;-72
2023/01/02 06:55:35;;;;;;;2.97;2.15;;;;;;;7.25;100.00;100609.84;5015934;28;20091;-72
2023/01/02 06:58:01;;;;;;;4.18;2.13;;;;;;;7.19;100.00;100606.22;5017270;28;20034;-72
2023/01/02 07:00:26;;;;;;;3.28;2.08;;;;;;;7.22;100.00;100619.50;5016329;28;20022;-72
2023/01/02 07:02:52;;;;;;;2.95;1.80;;;;;;;7.16;100.00;100615.06;5017032;28;20029;-72
2023/01/02 07:05:17;;;;;;;6.07;2.00;;;;;;;7.17;100.00;100627.75;5016452;28;20034;-72
2023/01/02 07:07:43;;;;;;;5.03;1.95;;;;;;;7.16;100.00;100632.47;5015769;28;20410;-72
2023/01/02 07:10:08;;;;;;;5.03;2.72;;;;;;;7.14;100.00;100633.81;5015841;28;20029;-72
2023/01/02 07:12:35;;;;;;;3.60;2.03;;;;;;;7.12;100.00;100625.78;5016940;28;20113;-72
2023/01/02 07:15:01;;;;;;;3.60;2.10;;;;;;;7.11;100.00;100618.63;4999506;28;20037;-72
2023/01/02 07:17:26;;;;;;;5.40;2.28;;;;;;;7.08;100.00;100623.84;4999054;28;20033;-72
2023/01/02 07:19:52;;;;;;;3.63;2.20;;;;;;;7.09;100.00;100642.06;5016643;28;20022;-71
2023/01/02 07:22:17;;;;;;;4.28;2.35;;;;;;;7.08;100.00;100652.31;5016650;28;20045;-72
2023/01/02 07:24:43;;;;;;;4.25;2.40;;;;;;;7.01;100.00;100659.16;5012499;28;20285;-72
2023/01/02 07:27:12;;;;;;;2.47;2.08;;;;;;;7.02;100.00;100658.91;5014853;28;20018;-83
2023/01/02 07:29:37;;;;;;;5.43;2.10;;;;;;;7.02;100.00;100663.56;5016488;28;20090;-72
2023/01/02 07:32:03;;;;;;;3.38;2.15;;;;;;;7.00;100.00;100668.53;5015176;28;20820;-70
2023/01/02 07:34:29;;;;;;;4.53;2.40;;;;;;;6.97;100.00;100656.09;5015607;28;20050;-72
2023/01/02 07:36:54;;;;;;;5.25;2.45;;;;;;;6.96;100.00;100664.63;4998614;28;20038;-72
2023/01/02 07:39:21;;;;;;;4.80;2.40;;;;;;;6.94;100.00;100667.69;5015117;28;20054;-72
2023/01/02 07:41:46;;;;;;;2.67;2.08;;;;;;;6.91;100.00;100677.31;5014946;28;20033;-72
2023/01/02 07:44:12;;;;;;;3.65;2.20;;;;;;;6.90;100.00;100694.97;5011939;28;20100;-72
2023/01/02 07:46:37;;;;;;;5.20;2.40;;;;;;;6.82;100.00;100706.50;5016401;28;20438;-72
2023/01/02 07:49:03;;;;;;;6.18;2.40;;;;;;;6.78;100.00;100719.19;4998580;28;20034;-72
2023/01/02 07:51:29;;;;;;;3.70;2.33;;;;;;;6.72;100.00;100731.28;4998596;28;20037;-72
2023/01/02 07:53:55;;;;;;;4.10;2.00;;;;;;;6.66;100.00;100732.34;5015046;28;20061;-72
2023/01/02 07:56:20;;;;;;;5.80;2.17;;;;;;;6.67;100.00;100739.50;5014620;28;20030;-72
2023/01/02 07:58:46;;;;;;;3.55;2.03;;;;;;;6.66;100.00;100748.91;5016421;28;20022;-72
2023/01/02 08:01:11;;;;;;;3.80;2.28;;;;;;;6.58;100.00;100746.63;5016157;28;20033;-72
2023/01/02 08:03:37;;;;;;;3.55;2.10;;;;;;;6.61;100.00;100757.13;5016356;28;20045;-72
2023/01/02 08:06:07;;;;;;;6.15;2.60;;;;;;;6.56;100.00;100757.91;5016240;28;20033;-72
2023/01/02 08:08:33;;;;;;;5.75;2.35;;;;;;;6.51;100.00;100757.03;5018091;28;20041;-72
2023/01/02 08:11:03;;;;;;;3.38;2.10;;;;;;;6.55;100.00;100766.47;5035469;28;20087;-72
2023/01/02 08:13:28;;;;;;;5.85;2.78;;;;;;;6.48;100.00;100769.41;5034634;28;20060;-72
2023/01/02 08:15:54;;;;;;;8.70;2.25;;;;;;;6.47;100.00;100773.28;5035746;28;20036;-72
2023/01/02 08:18:19;;;;;;;7.20;2.80;;;;;;;6.46;100.00;100769.69;5034605;28;20386;-72
2023/01/02 08:20:45;;;;;;;4.43;2.40;;;;;;;6.45;100.00;100775.44;5033785;28;20036;-72
2023/01/02 08:23:10;;;;;;;5.38;2.50;;;;;;;6.47;100.00;100779.63;5035642;28;20036;-72
2023/01/02 08:25:36;;;;;;;5.38;2.22;;;;;;;6.47;100.00;100782.38;5017180;28;20025;-72
2023/01/02 08:28:01;;;;;;;7.47;2.65;;;;;;;6.47;100.00;100792.59;5015898;28;20030;-72
2023/01/02 08:30:26;;;;;;;2.65;1.70;;;;;;;6.44;100.00;100793.09;5015640;28;20044;-73
2023/01/02 08:32:52;;;;;;;4.82;2.10;;;;;;;6.39;100.00;100804.91;5000785;28;20030;-72
2023/01/02 08:35:17;;;;;;;3.97;1.92;;;;;;;6.40;100.00;100809.31;5014129;28;20049;-72
2023/01/02 08:37:43;;;;;;;5.65;2.30;;;;;;;6.40;100.00;100805.75;5025641;28;20517;-72
2023/01/02 08:40:09;;;;;;;5.90;2.28;;;;;;;6.42;100.00;100820.13;5017768;28;20394;-72
2023/01/02 08:42:34;;;;;;;4.70;2.13;;;;;;;6.36;100.00;100821.97;5035574;28;20064;-72
2023/01/02 08:45:00;;;;;;;3.55;1.80;;;;;;;6.37;100.00;100828.34;4984541;28;20490;-72
2023/01/02 08:47:25;;;;;;;3.72;1.90;;;;;;;6.39;100.00;100828.91;5014292;28;20034;-73
2023/01/02 08:49:51;;;;;;;3.50;1.95;;;;;;;6.41;100.00;100835.84;5014064;28;20086;-73
2023/01/02 08:52:16;;;;;;;6.25;2.20;;;;;;;6.41;100.00;100841.38;5047212;28;20030;-73
2023/01/02 08:54:42;;;;;;;5.68;2.22;;;;;;;6.41;100.00;100849.63;5015537;28;20371;-72
2023/01/02 08:57:07;;;;;;;2.85;1.98;;;;;;;6.42;100.00;100843.00;5015213;28;20117;-73
2023/01/02 08:59:33;;;;;;;4.75;2.17;;;;;;;6.43;100.00;100843.84;5015408;28;20173;-72
2023/01/02 09:01:59;;;;;;;5.80;2.20;;;;;;;6.44;100.00;100846.34;5014206;28;20044;-72
2023/01/02 09:04:24;;;;;;;5.22;2.10;;;;;;;6.47;100.00;100856.88;5014325;28;20022;-72
2023/01/02 09:06:50;;;;;;;6.25;2.17;;;;;;;6.53;100.00;100854.19;5015207;28;20026;-72
2023/01/02 09:09:15;;;;;;;4.57;2.20;;;;;;;6.53;100.00;100859.69;5015309;28;20034;-72
2023/01/02 09:11:49;;;;;;;4.65;1.90;;;;;;;6.59;100.00;100866.94;5015209;28;20034;-72
2023/01/02 09:14:15;;;;;;;4.43;1.83;;;;;;;6.65;100.00;100863.97;4998598;28;20026;-72
2023/01/02 09:16:40;;;;;;;3.90;1.98;;;;;;;6.67;100.00;100867.31;5020509;28;20500;-72
2023/01/02 09:19:06;;;;;;;5.15;2.40;;;;;;;6.75;100.00;100873.47;5026512;28;20033;-72
2023/01/02 09:21:32;;;;;;;6.93;2.25;;;;;;;6.81;100.00;100883.47;4987081;28;20026;-72
2023/01/02 09:23:57;;;;;;;6.25;2.47;;;;;;;6.90;100.00;100893.75;5002001;28;20025;-72
2023/01/02 09:26:23;;;;;;;6.18;2.38;;;;;;;7.00;100.00;100897.75;5026294;28;20026;-72
2023/01/02 09:28:48;;;;;;;3.70;2.05;;;;;;;7.07;100.00;100895.59;5017867;28;20608;-72
2023/01/02 09:31:14;;;;;;;8.40;2.70;;;;;;;7.15;100.00;100903.41;5018572;28;20037;-72
2023/01/02 09:33:41;;;;;;;6.07;2.40;;;;;;;7.27;100.00;100906.00;5026036;28;20565;-73
2023/01/02 09:36:07;;;;;;;4.85;2.50;;;;;;;7.34;100.00;100912.97;5004547;28;20038;-72
2023/01/02 09:38:33;;;;;;;9.75;2.92;;;;;;;7.45;100.00;100918.59;5000591;28;20152;-73
2023/01/02 09:41:00;;;;;;;7.70;2.38;;;;;;;7.55;100.00;100926.97;5018037;28;20033;-72
2023/01/02 09:43:44;;;;;;;4.43;2.15;;;;;;;7.65;100.00;100927.06;5017101;28;20018;-73
2023/01/02 09:46:26;;;;;;;4.97;2.38;;;;;;;7.75;100.00;100935.44;5017582;28;20479;-73
2023/01/02 09:48:52;;;;;;;5.53;2.45;;;;;;;7.84;100.00;100942.13;5032606;28;20506;-72
2023/01/02 09:51:19;;;;;;;5.07;2.60;;;;;;;7.95;100.00;100942.22;5020557;28;20064;-73
2023/01/02 09:53:45;;;;;;;6.10;2.30;;;;;;;8.04;100.00;100951.66;5027683;28;20042;-73
2023/01/02 09:56:23;;;;;;;6.15;2.20;;;;;;;8.13;100.00;100950.06;5021647;28;20153;-72
2023/01/02 09:59:00;;;;;;;5.50;2.05;;;;;;;8.23;100.00;100952.06;5008347;28;20064;-72
2023/01/02 10:01:31;;;;;;;4.70;1.98;;;;;;;8.33;100.00;100957.69;5038976;28;20034;-72
2023/01/02 10:04:06;;;;;;;6.60;2.13;;;;;;;8.44;100.00;100964.09;4985187;28;20018;-73
2023/01/02 10:06:37;;;;;;;8.45;1.95;;;;;;;8.54;100.00;100961.41;5006181;28;20042;-73
2023/01/02 10:09:25;;;;;;;3.53;1.73;;;;;;;8.66;100.00;100964.78;5000217;28;20116;-73
2023/01/02 10:12:04;;;;;;;5.30;2.30;;;;;;;8.76;100.00;100969.53;5037953;28;20112;-73
2023/01/02 10:14:52;;;;;;;4.68;1.80;;;;;;;8.88;100.00;100980.38;5020282;28;20470;-72
2023/01/02 10:17:18;;;;;;;4.65;1.92;;;;;;;8.98;100.00;100982.34;5020272;28;20043;-73
2023/01/02 10:20:03;;;;;;;4.93;2.08;;;;;;;9.09;100.00;100986.81;4998558;28;20025;-73
2023/01/02 10:22:48;;;;;;;6.03;1.70;;;;;;;9.20;100.00;100990.47;4996346;28;20055;-73
2023/01/02 10:25:30;;;;;;;10.25;2.10;;;;;;;9.28;100.00;100990.75;5016475;28;20427;-73
2023/01/02 10:28:14;;;;;;;5.47;1.90;;;;;;;9.40;100.00;100994.09;5000664;28;20057;-73
2023/01/02 10:30:42;;;;;;;6.25;1.77;;;;;;;9.51;100.00;100997.72;5025095;28;20029;-73
2023/01/02 10:33:17;;;;;;;5.38;1.90;;;;;;;9.59;100.00;101004.66;5000061;28;20037;-73
2023/01/02 10:35:48;;;;;;;7.35;2.10;;;;;;;9.70;100.00;101011.06;4983947;28;20052;-72
2023/01/02 10:38:14;;;;;;;5.45;1.67;;;;;;;9.80;100.00;101008.28;5016014;28;20077;-72
2023/01/02 10:40:42;;;;;;;7.57;1.75;;;;;;;9.88;100.00;101013.28;5016574;28;20036;-73
2023/01/02 10:43:08;;;;;;;8.13;1.90;;;;;;;9.98;100.00;101006.91;5015806;28;20057;-73
2023/01/02 10:45:33;;;;;;;5.63;1.70;;;;;;;10.06;100.00;101015.50;5015882;28;20030;-73
2023/01/02 10:47:59;;;;;;;5.72;1.88;;;;;;;10.15;100.00;101009.38;5015262;28;20033;-73
2023/01/02 10:50:27;;;;;;;5.53;1.67;;;;;;;10.23;100.00;101017.97;5037058;28;20030;-72
2023/01/02 10:53:04;;;;;;;6.95;1.73;;;;;;;10.31;100.00;101024.09;5004325;28;20038;-73
2023/01/02 10:55:37;;;;;;;5.88;1.50;;;;;;;10.40;100.00;101026.03;5022147;28;20391;-72
2023/01/02 10:58:22;;;;;;;10.20;1.88;;;;;;;10.50;100.00;101019.63;5030361;28;20026;-72
2023/01/02 11:00:49;;;;;;;3.42;1.38;;;;;;;10.57;100.00;101019.34;5010289;28;20038;-73
2023/01/02 11:03:21;;;;;;;10.45;1.83;;;;;;;10.63;100.00;101018.22;5000014;28;20088;-73
2023/01/02 11:05:48;;;;;;;6.95;1.52;;;;;;;10.68;100.00;101002.34;5027228;28;20038;-72
2023/01/02 11:08:16;;;;;;;6.22;1.55;;;;;;;10.73;100.00;101007.06;5009093;28;20053;-72
2023/01/02 11:10:42;;;;;;;5.93;1.55;;;;;;;10.81;100.00;101013.97;4998868;28;20398;-73
2023/01/02 11:13:14;;;;;;;6.38;1.35;;;;;;;10.85;100.00;101021.47;4983458;28;20041;-72
2023/01/02 11:15:57;;;;;;;5.85;1.25;;;;;;;10.93;100.00;101023.66;5047236;28;20112;-73
2023/01/02 11:18:30;;;;;;;3.28;1.08;;;;;;;10.98;100.00;101020.03;4997245;28;20034;-73
2023/01/02 11:21:04;;;;;;;4.85;1.40;;;;;;;11.03;100.00;101024.72;5011737;28;20026;-72
2023/01/02 11:23:42;;;;;;;6.72;1.35;;;;;;;11.10;100.00;101022.47;5010368;28;20033;-73
2023/01/02 11:26:12;;;;;;;5.72;1.60;;;;;;;11.14;100.00;101018.00;5016131;28;20069;-73
2023/01/02 11:28:38;;;;;;;5.97;1.00;;;;;;;11.19;100.00;101013.25;5015446;28;20140;-73
2023/01/02 11:31:08;;;;;;;3.60;1.30;;;;;;;11.26;100.00;101021.28;5035344;28;20029;-73
2023/01/02 11:33:34;;;;;;;8.73;1.85;;;;;;;11.30;100.00;101021.53;4995310;28;20042;-72
2023/01/02 11:36:03;;;;;;;7.70;1.38;;;;;;;11.33;100.00;101023.75;5016937;28;20109;-73